createdAt,value
2023-03-12T00:00:33.280Z,3.08
2023-03-12T00:01:37.411Z,3.08
2023-03-12T00:02:41.687Z,3.07
2023-03-12T00:03:45.828Z,3.07
2023-03-12T00:04:49.876Z,3.04
2023-03-12T00:05:54.076Z,3.02
2023-03-12T00:06:58.176Z,3.02
2023-03-12T00:08:02.356Z,3.01
2023-03-12T00:09:06.525Z,3.00
2023-03-12T00:10:10.720Z,3.00
2023-03-12T00:11:15.016Z,2.99
2023-03-12T00:12:19.115Z,2.97
2023-03-12T00:13:23.259Z,2.96
2023-03-12T00:14:27.406Z,2.95
2023-03-12T00:15:31.492Z,2.95
2023-03-12T00:16:35.717Z,2.92
2023-03-12T00:17:39.852Z,2.90
2023-03-12T00:18:44.022Z,2.88
2023-03-12T00:19:54.110Z,2.87
2023-03-12T00:20:56.722Z,2.86
2023-03-12T00:22:00.969Z,2.85
2023-03-12T00:23:05.029Z,2.85
2023-03-12T00:24:23.272Z,2.84
2023-03-12T00:25:26.175Z,2.83
2023-03-12T00:26:30.272Z,2.81
2023-03-12T00:27:34.477Z,2.80
2023-03-12T00:28:38.593Z,2.79
2023-03-12T00:29:42.726Z,2.77
2023-03-12T00:30:46.981Z,2.76
2023-03-12T00:31:51.219Z,2.74
2023-03-12T00:32:55.448Z,2.73
2023-03-12T00:33:59.495Z,2.72
2023-03-12T00:35:03.656Z,2.71
2023-03-12T00:36:07.749Z,2.71
2023-03-12T00:37:11.997Z,2.72
2023-03-12T00:38:16.024Z,2.72
2023-03-12T00:39:20.210Z,2.70
2023-03-12T00:40:27.362Z,2.70
2023-03-12T00:41:30.527Z,2.69
2023-03-12T00:42:34.762Z,2.67
2023-03-12T00:43:38.936Z,2.65
2023-03-12T00:44:42.926Z,2.62
2023-03-12T00:45:47.179Z,2.60
2023-03-12T00:46:51.295Z,2.58
2023-03-12T00:47:55.479Z,2.56
2023-03-12T00:48:59.620Z,2.54
2023-03-12T00:50:03.718Z,2.52
2023-03-12T00:51:07.999Z,2.51
2023-03-12T00:52:12.250Z,2.49
2023-03-12T00:53:16.318Z,2.48
2023-03-12T00:54:20.609Z,2.48
2023-03-12T00:55:24.707Z,2.49
2023-03-12T00:56:28.907Z,2.50
2023-03-12T00:57:32.956Z,2.50
2023-03-12T00:58:37.154Z,2.49
2023-03-12T00:59:41.362Z,2.49
2023-03-12T01:00:45.420Z,2.50
2023-03-12T01:01:49.669Z,2.48
2023-03-12T01:02:53.702Z,2.47
2023-03-12T01:03:57.928Z,2.46
2023-03-12T01:05:02.166Z,2.45
2023-03-12T01:06:06.186Z,2.44
2023-03-12T01:07:10.385Z,2.41
2023-03-12T01:08:14.434Z,2.40
2023-03-12T01:09:18.671Z,2.40
2023-03-12T01:10:22.815Z,2.39
2023-03-12T01:11:27.046Z,2.38
2023-03-12T01:12:31.260Z,2.36
2023-03-12T01:13:35.487Z,2.35
2023-03-12T01:14:39.623Z,2.34
2023-03-12T01:15:43.812Z,2.35
2023-03-12T01:16:47.983Z,2.34
2023-03-12T01:17:51.936Z,2.33
2023-03-12T01:18:56.041Z,2.31
2023-03-12T01:20:00.283Z,2.30
2023-03-12T01:21:04.406Z,2.28
2023-03-12T01:22:22.691Z,2.27
2023-03-12T01:23:25.407Z,2.26
2023-03-12T01:24:29.409Z,2.26
2023-03-12T01:25:34.577Z,2.26
2023-03-12T01:26:38.193Z,2.27
2023-03-12T01:27:42.399Z,2.29
2023-03-12T01:28:46.503Z,2.28
2023-03-12T01:29:50.630Z,2.26
2023-03-12T01:30:54.886Z,2.25
2023-03-12T01:31:59.023Z,2.23
2023-03-12T01:33:03.164Z,2.21
2023-03-12T01:34:07.223Z,2.20
2023-03-12T01:35:12.380Z,2.18
2023-03-12T01:36:22.246Z,2.16
2023-03-12T01:37:24.765Z,2.14
2023-03-12T01:38:28.889Z,2.13
2023-03-12T01:39:32.937Z,2.12
2023-03-12T01:40:37.118Z,2.11
2023-03-12T01:41:41.203Z,2.11
2023-03-12T01:42:45.283Z,2.12
2023-03-12T01:43:49.367Z,2.12
2023-03-12T01:44:53.577Z,2.12
2023-03-12T01:45:57.807Z,2.10
2023-03-12T01:47:01.898Z,2.10
2023-03-12T01:48:05.925Z,2.10
2023-03-12T01:49:10.202Z,2.11
2023-03-12T01:50:14.372Z,2.12
2023-03-12T01:51:18.496Z,2.10
2023-03-12T01:52:22.776Z,2.09
2023-03-12T01:53:26.842Z,2.08
2023-03-12T01:54:31.103Z,2.09
2023-03-12T01:55:35.130Z,2.10
2023-03-12T01:56:39.292Z,2.11
2023-03-12T01:57:43.375Z,2.11
2023-03-12T01:58:47.562Z,2.11
2023-03-12T01:59:51.701Z,2.09
2023-03-12T02:00:56.006Z,2.07
2023-03-12T02:02:14.040Z,2.05
2023-03-12T02:03:31.044Z,2.04
2023-03-12T02:04:33.873Z,2.03
2023-03-12T02:05:37.974Z,2.04
2023-03-12T02:06:42.074Z,2.04
2023-03-12T02:07:46.124Z,2.03
2023-03-12T02:08:50.202Z,2.02
2023-03-12T02:09:54.368Z,2.00
2023-03-12T02:10:58.441Z,1.99
2023-03-12T02:12:16.680Z,1.99
2023-03-12T02:13:19.612Z,1.99
2023-03-12T02:14:23.558Z,1.99
2023-03-12T02:15:27.762Z,1.98
2023-03-12T02:16:32.033Z,1.97
2023-03-12T02:17:36.073Z,1.97
2023-03-12T02:18:40.207Z,1.97
2023-03-12T02:19:44.224Z,1.97
2023-03-12T02:20:48.445Z,1.96
2023-03-12T02:21:52.502Z,1.95
2023-03-12T02:22:56.671Z,1.95
2023-03-12T02:24:00.742Z,1.96
2023-03-12T02:25:04.842Z,1.96
2023-03-12T02:26:09.143Z,1.95
2023-03-12T02:27:13.101Z,1.95
2023-03-12T02:28:17.421Z,1.97
2023-03-12T02:29:21.531Z,1.98
2023-03-12T02:30:25.665Z,1.98
2023-03-12T02:31:29.848Z,1.99
2023-03-12T02:32:34.034Z,2.01
2023-03-12T02:33:38.024Z,2.01
2023-03-12T02:34:42.132Z,2.02
2023-03-12T02:35:46.342Z,2.03
2023-03-12T02:36:50.532Z,2.03
2023-03-12T02:37:54.739Z,2.02
2023-03-12T02:38:58.956Z,2.02
2023-03-12T02:40:03.060Z,2.01
2023-03-12T02:41:07.238Z,2.01
2023-03-12T02:42:11.357Z,2.00
2023-03-12T02:43:15.566Z,2.01
2023-03-12T02:44:19.745Z,2.01
2023-03-12T02:45:23.851Z,2.01
2023-03-12T02:46:27.969Z,2.01
2023-03-12T02:47:33.047Z,2.00
2023-03-12T02:48:36.334Z,1.98
2023-03-12T02:49:40.464Z,1.97
2023-03-12T02:50:44.503Z,1.98
2023-03-12T02:51:48.758Z,1.98
2023-03-12T02:52:52.931Z,1.96
2023-03-12T02:53:57.069Z,1.96
2023-03-12T02:55:01.220Z,1.95
2023-03-12T02:56:05.308Z,1.95
2023-03-12T02:57:09.481Z,1.94
2023-03-12T02:58:13.615Z,1.94
2023-03-12T02:59:17.861Z,1.95
2023-03-12T03:00:22.893Z,1.95
2023-03-12T03:01:26.820Z,1.95
2023-03-12T03:02:30.788Z,1.95
2023-03-12T03:03:34.855Z,1.94
2023-03-12T03:04:38.951Z,1.93
2023-03-12T03:05:43.195Z,1.92
2023-03-12T03:06:47.354Z,1.92
2023-03-12T03:07:51.549Z,1.91
2023-03-12T03:08:55.632Z,1.91
2023-03-12T03:09:59.774Z,1.91
2023-03-12T03:11:04.008Z,1.89
2023-03-12T03:12:08.136Z,1.88
2023-03-12T03:13:12.251Z,1.87
2023-03-12T03:14:16.290Z,1.86
2023-03-12T03:15:20.512Z,1.85
2023-03-12T03:16:24.545Z,1.85
2023-03-12T03:17:28.707Z,1.83
2023-03-12T03:18:32.903Z,1.83
2023-03-12T03:19:37.011Z,1.83
2023-03-12T03:20:41.031Z,1.84
2023-03-12T03:21:46.161Z,1.83
2023-03-12T03:22:49.792Z,1.81
2023-03-12T03:23:54.049Z,1.80
2023-03-12T03:24:58.176Z,1.79
2023-03-12T03:26:02.456Z,1.78
2023-03-12T03:27:06.419Z,1.77
2023-03-12T03:28:10.518Z,1.77
2023-03-12T03:29:14.755Z,1.77
2023-03-12T03:30:18.916Z,1.76
2023-03-12T03:31:23.088Z,1.75
2023-03-12T03:32:27.180Z,1.73
2023-03-12T03:33:31.211Z,1.73
2023-03-12T03:34:35.412Z,1.72
2023-03-12T03:35:39.603Z,1.73
2023-03-12T03:36:43.716Z,1.73
2023-03-12T03:37:47.942Z,1.74
2023-03-12T03:38:52.040Z,1.75
2023-03-12T03:39:57.081Z,1.75
2023-03-12T03:41:00.806Z,1.73
2023-03-12T03:42:05.114Z,1.72
2023-03-12T03:43:09.231Z,1.71
2023-03-12T03:44:13.359Z,1.70
2023-03-12T03:45:17.483Z,1.70
2023-03-12T03:46:21.735Z,1.68
2023-03-12T03:47:25.815Z,1.68
2023-03-12T03:48:29.844Z,1.68
2023-03-12T03:49:33.923Z,1.69
2023-03-12T03:50:38.113Z,1.71
2023-03-12T03:51:42.278Z,1.73
2023-03-12T03:52:46.337Z,1.75
2023-03-12T03:53:50.634Z,1.76
2023-03-12T03:54:54.729Z,1.76
2023-03-12T03:55:58.896Z,1.77
2023-03-12T03:57:03.197Z,1.77
2023-03-12T03:58:07.168Z,1.77
2023-03-12T03:59:11.349Z,1.75
2023-03-12T04:00:15.476Z,1.75
2023-03-12T04:01:19.652Z,1.74
2023-03-12T04:02:23.791Z,1.73
2023-03-12T04:03:28.132Z,1.74
2023-03-12T04:04:32.253Z,1.73
2023-03-12T04:05:36.406Z,1.72
2023-03-12T04:06:46.546Z,1.70
2023-03-12T04:07:49.146Z,1.70
2023-03-12T04:08:53.384Z,1.71
2023-03-12T04:09:57.329Z,1.73
2023-03-12T04:11:01.525Z,1.75
2023-03-12T04:12:05.598Z,1.78
2023-03-12T04:13:09.785Z,1.79
2023-03-12T04:14:13.919Z,1.78
2023-03-12T04:15:17.998Z,1.78
2023-03-12T04:16:22.187Z,1.79
2023-03-12T04:17:26.467Z,1.80
2023-03-12T04:18:30.604Z,1.80
2023-03-12T04:19:34.578Z,1.79
2023-03-12T04:20:38.792Z,1.79
2023-03-12T04:21:42.902Z,1.79
2023-03-12T04:22:47.059Z,1.79
2023-03-12T04:23:51.241Z,1.79
2023-03-12T04:24:55.355Z,1.78
2023-03-12T04:25:59.605Z,1.78
2023-03-12T04:27:03.734Z,1.78
2023-03-12T04:28:07.896Z,1.78
2023-03-12T04:29:11.947Z,1.78
2023-03-12T04:30:16.064Z,1.78
2023-03-12T04:31:20.269Z,1.77
2023-03-12T04:32:24.443Z,1.77
2023-03-12T04:33:28.545Z,1.76
2023-03-12T04:34:32.742Z,1.74
2023-03-12T04:35:36.944Z,1.73
2023-03-12T04:36:40.983Z,1.71
2023-03-12T04:37:45.170Z,1.69
2023-03-12T04:38:49.342Z,1.67
2023-03-12T04:39:53.537Z,1.65
2023-03-12T04:40:57.715Z,1.65
2023-03-12T04:42:01.876Z,1.66
2023-03-12T04:43:06.028Z,1.65
2023-03-12T04:44:13.081Z,1.62
2023-03-12T04:45:16.352Z,1.59
2023-03-12T04:46:20.581Z,1.58
2023-03-12T04:47:24.484Z,1.58
2023-03-12T04:48:28.570Z,1.59
2023-03-12T04:49:32.774Z,1.58
2023-03-12T04:50:36.802Z,1.57
2023-03-12T04:51:41.047Z,1.57
2023-03-12T04:52:45.200Z,1.57
2023-03-12T04:53:49.296Z,1.55
2023-03-12T04:54:53.426Z,1.53
2023-03-12T04:55:57.589Z,1.52
2023-03-12T04:57:01.878Z,1.51
2023-03-12T04:58:05.988Z,1.50
2023-03-12T04:59:10.192Z,1.49
2023-03-12T05:00:14.399Z,1.46
2023-03-12T05:01:18.465Z,1.43
2023-03-12T05:02:22.654Z,1.40
2023-03-12T05:03:27.938Z,1.38
2023-03-12T05:04:33.618Z,1.37
2023-03-12T05:05:35.707Z,1.35
2023-03-12T05:06:39.898Z,1.34
2023-03-12T05:07:46.978Z,1.34
2023-03-12T05:08:50.168Z,1.36
2023-03-12T05:09:54.473Z,1.35
2023-03-12T05:10:58.576Z,1.35
2023-03-12T05:12:02.754Z,1.33
2023-03-12T05:13:06.906Z,1.33
2023-03-12T05:14:10.902Z,1.35
2023-03-12T05:15:15.122Z,1.37
2023-03-12T05:16:19.413Z,1.38
2023-03-12T05:17:23.444Z,1.39
2023-03-12T05:18:27.641Z,1.38
2023-03-12T05:19:31.751Z,1.37
2023-03-12T05:20:35.928Z,1.38
2023-03-12T05:21:39.965Z,1.39
2023-03-12T05:22:45.093Z,1.40
2023-03-12T05:23:48.907Z,1.41
2023-03-12T05:24:52.936Z,1.39
2023-03-12T05:25:56.999Z,1.36
2023-03-12T05:27:01.192Z,1.35
2023-03-12T05:28:05.314Z,1.35
2023-03-12T05:29:09.477Z,1.37
2023-03-12T05:30:13.659Z,1.35
2023-03-12T05:31:17.803Z,1.37
2023-03-12T05:32:21.916Z,1.39
2023-03-12T05:33:26.101Z,1.41
2023-03-12T05:34:30.221Z,1.44
2023-03-12T05:35:34.293Z,1.46
2023-03-12T05:36:38.482Z,1.46
2023-03-12T05:37:42.634Z,1.44
2023-03-12T05:38:46.664Z,1.42
2023-03-12T05:39:50.785Z,1.40
2023-03-12T05:40:54.863Z,1.40
2023-03-12T05:41:59.119Z,1.39
2023-03-12T05:43:03.316Z,1.36
2023-03-12T05:44:07.327Z,1.34
2023-03-12T05:45:11.625Z,1.32
2023-03-12T05:46:15.834Z,1.29
2023-03-12T05:47:19.806Z,1.28
2023-03-12T05:48:24.000Z,1.26
2023-03-12T05:49:28.169Z,1.24
2023-03-12T05:50:32.314Z,1.22
2023-03-12T05:51:36.437Z,1.22
2023-03-12T05:52:40.455Z,1.21
2023-03-12T05:53:44.529Z,1.20
2023-03-12T05:54:48.626Z,1.20
2023-03-12T05:55:52.904Z,1.21
2023-03-12T05:56:56.969Z,1.23
2023-03-12T05:58:01.002Z,1.25
2023-03-12T05:59:05.221Z,1.26
2023-03-12T06:00:09.343Z,1.28
2023-03-12T06:01:13.445Z,1.31
2023-03-12T06:02:17.731Z,1.33
2023-03-12T06:03:21.770Z,1.36
2023-03-12T06:04:25.793Z,1.39
2023-03-12T06:05:30.125Z,1.42
2023-03-12T06:06:34.094Z,1.41
2023-03-12T06:07:38.349Z,1.41
2023-03-12T06:08:42.506Z,1.42
2023-03-12T06:09:46.564Z,1.44
2023-03-12T06:10:50.880Z,1.47
2023-03-12T06:11:55.067Z,1.50
2023-03-12T06:12:59.203Z,1.53
2023-03-12T06:14:03.360Z,1.57
2023-03-12T06:15:07.575Z,1.60
2023-03-12T06:16:11.760Z,1.61
2023-03-12T06:17:15.828Z,1.64
2023-03-12T06:18:20.012Z,1.67
2023-03-12T06:19:24.044Z,1.67
2023-03-12T06:20:28.253Z,1.68
2023-03-12T06:21:32.423Z,1.70
2023-03-12T06:22:36.578Z,1.73
2023-03-12T06:23:40.700Z,1.75
2023-03-12T06:24:44.735Z,1.78
2023-03-12T06:25:48.971Z,1.81
2023-03-12T06:26:53.046Z,1.83
2023-03-12T06:27:57.310Z,1.86
2023-03-12T06:29:01.537Z,1.88
2023-03-12T06:30:05.644Z,1.90
2023-03-12T06:31:09.923Z,1.91
2023-03-12T06:32:14.901Z,1.93
2023-03-12T06:33:18.652Z,1.94
2023-03-12T06:34:22.665Z,1.96
2023-03-12T06:35:26.848Z,1.98
2023-03-12T06:36:30.957Z,2.00
2023-03-12T06:37:35.037Z,2.02
2023-03-12T06:38:39.399Z,2.03
2023-03-12T06:39:43.427Z,2.05
2023-03-12T06:40:47.549Z,2.06
2023-03-12T06:41:51.742Z,2.08
2023-03-12T06:42:55.834Z,2.10
2023-03-12T06:43:59.916Z,2.12
2023-03-12T06:45:04.071Z,2.13
2023-03-12T06:46:08.286Z,2.14
2023-03-12T06:47:12.246Z,2.16
2023-03-12T06:48:17.438Z,2.18
2023-03-12T06:49:21.223Z,2.21
2023-03-12T06:50:39.267Z,2.23
2023-03-12T06:51:42.087Z,2.26
2023-03-12T06:52:46.240Z,2.30
2023-03-12T06:53:50.463Z,2.34
2023-03-12T06:54:54.394Z,2.38
2023-03-12T06:55:58.518Z,2.41
2023-03-12T06:57:02.615Z,2.43
2023-03-12T06:58:06.838Z,2.46
2023-03-12T06:59:11.005Z,2.49
2023-03-12T07:00:15.210Z,2.51
2023-03-12T07:01:19.311Z,2.54
2023-03-12T07:02:23.639Z,2.56
2023-03-12T07:03:27.589Z,2.59
2023-03-12T07:04:31.858Z,2.61
2023-03-12T07:05:36.024Z,2.63
2023-03-12T07:06:40.195Z,2.65
2023-03-12T07:07:58.459Z,2.67
2023-03-12T07:09:01.382Z,2.68
2023-03-12T07:10:05.485Z,2.69
2023-03-12T07:11:09.621Z,2.71
2023-03-12T07:12:13.765Z,2.71
2023-03-12T07:13:17.933Z,2.72
2023-03-12T07:14:22.077Z,2.72
2023-03-12T07:15:29.230Z,2.73
2023-03-12T07:16:32.519Z,2.73
2023-03-12T07:17:36.549Z,2.74
2023-03-12T07:18:40.770Z,2.75
2023-03-12T07:19:45.055Z,2.75
2023-03-12T07:20:50.108Z,2.74
2023-03-12T07:21:53.066Z,2.72
2023-03-12T07:22:57.281Z,2.72
2023-03-12T07:24:01.371Z,2.71
2023-03-12T07:25:05.583Z,2.71
2023-03-12T07:26:15.772Z,2.71
2023-03-12T07:27:18.395Z,2.72
2023-03-12T07:28:22.459Z,2.74
2023-03-12T07:29:26.658Z,2.75
2023-03-12T07:30:30.905Z,2.76
2023-03-12T07:31:35.038Z,2.78
2023-03-12T07:32:53.177Z,2.79
2023-03-12T07:33:56.148Z,2.80
2023-03-12T07:35:00.152Z,2.80
2023-03-12T07:36:04.321Z,2.81
2023-03-12T07:37:08.405Z,2.82
2023-03-12T07:38:12.645Z,2.83
2023-03-12T07:39:16.737Z,2.84
2023-03-12T07:40:34.998Z,2.85
2023-03-12T07:41:37.870Z,2.87
2023-03-12T07:42:42.014Z,2.89
2023-03-12T07:43:46.223Z,2.92
2023-03-12T07:44:50.614Z,2.92
2023-03-12T07:45:54.454Z,2.93
2023-03-12T07:47:04.801Z,2.95
2023-03-12T07:48:02.811Z,2.97
2023-03-12T07:49:06.914Z,3.00
2023-03-12T07:50:11.153Z,3.02
2023-03-12T07:51:15.225Z,3.04
2023-03-12T07:52:19.482Z,3.06
2023-03-12T07:53:23.576Z,3.08
2023-03-12T07:54:27.858Z,3.10
2023-03-12T07:55:32.015Z,3.11
2023-03-12T07:56:36.392Z,3.13
2023-03-12T07:57:40.464Z,3.15
2023-03-12T07:58:44.697Z,3.16
2023-03-12T07:59:48.716Z,3.17
2023-03-12T08:00:52.807Z,3.18
2023-03-12T08:01:57.063Z,3.20
2023-03-12T08:03:01.370Z,3.22
2023-03-12T08:04:05.499Z,3.24
2023-03-12T08:05:09.594Z,3.26
2023-03-12T08:06:13.715Z,3.27
2023-03-12T08:07:23.857Z,3.28
2023-03-12T08:08:26.607Z,3.28
2023-03-12T08:09:30.721Z,3.29
2023-03-12T08:10:34.948Z,3.30
2023-03-12T08:11:53.407Z,3.32
2023-03-12T08:12:57.031Z,3.34
2023-03-12T08:14:00.655Z,3.36
2023-03-12T08:15:04.795Z,3.37
2023-03-12T08:16:09.614Z,3.39
2023-03-12T08:17:13.102Z,3.40
2023-03-12T08:18:17.273Z,3.42
2023-03-12T08:19:24.592Z,3.45
2023-03-12T08:20:27.773Z,3.47
2023-03-12T08:21:46.563Z,3.50
2023-03-12T08:22:49.025Z,3.52
2023-03-12T08:23:56.147Z,3.55
2023-03-12T08:24:59.449Z,3.58
2023-03-12T08:26:03.636Z,3.61
2023-03-12T08:27:07.754Z,3.64
2023-03-12T08:28:11.962Z,3.67
2023-03-12T08:29:16.120Z,3.69
2023-03-12T08:30:20.338Z,3.72
2023-03-12T08:31:24.620Z,3.73
2023-03-12T08:32:28.769Z,3.74
2023-03-12T08:33:32.684Z,3.75
2023-03-12T08:34:36.943Z,3.77
2023-03-12T08:35:41.160Z,3.79
2023-03-12T08:36:45.281Z,3.81
2023-03-12T08:37:49.474Z,3.84
2023-03-12T08:38:53.605Z,3.85
2023-03-12T08:39:57.777Z,3.85
2023-03-12T08:41:01.974Z,3.86
2023-03-12T08:42:06.076Z,3.87
2023-03-12T08:43:10.330Z,3.89
2023-03-12T08:44:14.447Z,3.89
2023-03-12T08:45:32.737Z,3.89
2023-03-12T08:46:35.781Z,3.92
2023-03-12T08:47:39.881Z,3.93
2023-03-12T08:48:44.112Z,3.94
2023-03-12T08:49:48.264Z,3.96
2023-03-12T08:50:52.524Z,3.97
2023-03-12T08:51:56.659Z,3.96
2023-03-12T08:53:00.937Z,3.95
2023-03-12T08:54:05.074Z,3.91
2023-03-12T08:55:09.274Z,3.88
2023-03-12T08:56:13.553Z,3.84
2023-03-12T08:57:17.636Z,3.81
2023-03-12T08:58:21.829Z,3.78
2023-03-12T08:59:26.141Z,3.76
2023-03-12T09:00:30.306Z,3.76
2023-03-12T09:01:34.485Z,3.76
2023-03-12T09:02:38.678Z,3.75
2023-03-12T09:03:42.764Z,3.77
2023-03-12T09:04:47.014Z,3.77
2023-03-12T09:05:51.125Z,3.76
2023-03-12T09:06:55.340Z,3.77
2023-03-12T09:07:59.604Z,3.77
2023-03-12T09:09:03.645Z,3.77
2023-03-12T09:10:07.906Z,3.78
2023-03-12T09:11:13.004Z,3.79
2023-03-12T09:12:16.775Z,3.78
2023-03-12T09:13:20.976Z,3.76
2023-03-12T09:15:29.375Z,3.74
2023-03-12T09:16:33.593Z,3.70
2023-03-12T09:17:37.784Z,3.70
2023-03-12T09:18:41.972Z,3.69
2023-03-12T09:19:46.222Z,3.68
2023-03-12T09:20:50.305Z,3.70
2023-03-12T09:21:54.514Z,3.72
2023-03-12T09:22:58.734Z,3.74
2023-03-12T09:24:02.888Z,3.78
2023-03-12T09:25:07.108Z,3.82
2023-03-12T09:26:11.239Z,3.87
2023-03-12T09:27:15.467Z,3.91
2023-03-12T09:28:19.647Z,3.92
2023-03-12T09:29:23.844Z,3.95
2023-03-12T09:30:28.260Z,3.96
2023-03-12T09:31:32.137Z,3.99
2023-03-12T09:32:36.509Z,4.00
2023-03-12T09:33:43.600Z,4.01
2023-03-12T09:34:46.943Z,4.02
2023-03-12T09:35:51.100Z,4.03
2023-03-12T09:36:55.269Z,4.06
2023-03-12T09:37:59.467Z,4.07
2023-03-12T09:39:03.548Z,4.09
2023-03-12T09:40:07.841Z,4.09
2023-03-12T09:41:12.015Z,4.08
2023-03-12T09:42:16.172Z,4.06
2023-03-12T09:43:20.359Z,4.04
2023-03-12T09:44:24.521Z,4.01
2023-03-12T09:45:28.824Z,4.00
2023-03-12T09:46:33.032Z,3.99
2023-03-12T09:47:37.254Z,3.99
2023-03-12T09:48:41.381Z,3.98
2023-03-12T09:49:45.603Z,3.97
2023-03-12T09:50:49.748Z,3.96
2023-03-12T09:51:53.952Z,3.95
2023-03-12T09:52:59.154Z,3.93
2023-03-12T09:54:02.946Z,3.89
2023-03-12T09:55:07.139Z,3.87
2023-03-12T09:56:11.325Z,3.87
2023-03-12T09:57:15.570Z,3.89
2023-03-12T09:58:19.720Z,3.92
2023-03-12T09:59:23.936Z,3.94
2023-03-12T10:00:28.073Z,3.97
2023-03-12T10:01:32.285Z,4.00
2023-03-12T10:02:36.614Z,4.02
2023-03-12T10:03:40.922Z,4.03
2023-03-12T10:04:58.603Z,4.03
2023-03-12T10:05:49.161Z,4.03
2023-03-12T10:06:53.323Z,4.03
2023-03-12T10:07:57.515Z,4.02
2023-03-12T10:09:01.751Z,4.01
2023-03-12T10:10:06.005Z,3.97
2023-03-12T10:11:10.215Z,3.93
2023-03-12T10:12:14.346Z,3.93
2023-03-12T10:13:18.573Z,3.95
2023-03-12T10:14:24.141Z,3.97
2023-03-12T10:15:26.915Z,3.99
2023-03-12T10:16:31.455Z,4.00
2023-03-12T10:17:35.918Z,4.02
2023-03-12T10:18:40.017Z,4.04
2023-03-12T10:19:44.105Z,4.03
2023-03-12T10:20:48.333Z,4.06
2023-03-12T10:21:52.520Z,4.08
2023-03-12T10:22:56.734Z,4.10
2023-03-12T10:24:00.951Z,4.15
2023-03-12T10:25:05.083Z,4.19
2023-03-12T10:26:09.302Z,4.18
2023-03-12T10:27:13.525Z,4.21
2023-03-12T10:28:17.685Z,4.26
2023-03-12T10:29:21.920Z,4.31
2023-03-12T10:30:26.108Z,4.37
2023-03-12T10:31:30.353Z,4.41
2023-03-12T10:32:35.494Z,4.42
2023-03-12T10:33:45.327Z,4.44
2023-03-12T10:34:48.079Z,4.45
2023-03-12T10:35:52.368Z,4.48
2023-03-12T10:36:56.468Z,4.47
2023-03-12T10:38:00.699Z,4.49
2023-03-12T10:39:04.860Z,4.50
2023-03-12T10:40:09.049Z,4.45
2023-03-12T10:41:13.265Z,4.35
2023-03-12T10:42:17.582Z,4.31
2023-03-12T10:43:21.727Z,4.31
2023-03-12T10:44:26.022Z,4.34
2023-03-12T10:45:30.250Z,4.35
2023-03-12T10:46:34.761Z,4.37
2023-03-12T10:47:38.645Z,4.37
2023-03-12T10:48:42.808Z,4.27
2023-03-12T10:49:47.014Z,4.16
2023-03-12T10:50:51.232Z,4.07
2023-03-12T10:51:55.458Z,3.98
2023-03-12T10:52:59.735Z,3.90
2023-03-12T10:54:18.034Z,3.85
2023-03-12T10:55:20.818Z,3.86
2023-03-12T10:56:24.976Z,3.85
2023-03-12T10:57:29.210Z,3.91
2023-03-12T10:58:33.414Z,3.91
2023-03-12T10:59:37.670Z,3.80
2023-03-12T11:00:41.836Z,3.74
2023-03-12T11:01:46.131Z,3.75
2023-03-12T11:02:51.173Z,3.77
2023-03-12T11:03:54.899Z,3.76
2023-03-12T11:05:02.171Z,3.78
2023-03-12T11:06:05.505Z,3.76
2023-03-12T11:07:09.653Z,3.76
2023-03-12T11:08:13.821Z,3.73
2023-03-12T11:09:17.948Z,3.79
2023-03-12T11:10:22.361Z,3.86
2023-03-12T11:11:26.421Z,3.91
2023-03-12T11:12:30.665Z,3.97
2023-03-12T11:13:34.914Z,3.97
2023-03-12T11:14:39.038Z,3.95
2023-03-12T11:15:57.471Z,3.98
2023-03-12T11:17:00.349Z,4.04
2023-03-12T11:18:04.569Z,4.01
2023-03-12T11:19:08.622Z,4.04
2023-03-12T11:20:12.767Z,4.08
2023-03-12T11:21:17.051Z,4.03
2023-03-12T11:22:21.233Z,3.91
2023-03-12T11:23:25.440Z,3.82
2023-03-12T11:24:29.670Z,3.72
2023-03-12T11:25:33.874Z,3.57
2023-03-12T11:26:38.179Z,3.54
2023-03-12T11:27:42.324Z,3.43
2023-03-12T11:28:46.560Z,3.45
2023-03-12T11:29:50.785Z,3.42
2023-03-12T11:30:54.931Z,3.32
2023-03-12T11:31:59.175Z,3.22
2023-03-12T11:33:03.295Z,3.14
2023-03-12T11:34:07.502Z,3.15
2023-03-12T11:35:11.741Z,3.22
2023-03-12T11:36:15.899Z,3.31
2023-03-12T11:37:20.045Z,3.39
2023-03-12T11:38:24.211Z,3.49
2023-03-12T11:39:28.504Z,3.59
2023-03-12T11:40:32.682Z,3.65
2023-03-12T11:41:36.939Z,3.61
2023-03-12T11:42:41.039Z,3.51
2023-03-12T11:43:45.317Z,3.55
2023-03-12T11:44:49.550Z,3.53
2023-03-12T11:45:53.813Z,3.56
2023-03-12T11:46:58.057Z,3.50
2023-03-12T11:48:02.235Z,3.51
2023-03-12T11:49:06.467Z,3.47
2023-03-12T11:50:10.566Z,3.44
2023-03-12T11:51:17.933Z,3.43
2023-03-12T11:52:21.113Z,3.47
2023-03-12T11:53:25.350Z,3.49
2023-03-12T11:54:29.589Z,3.54
2023-03-12T11:55:33.808Z,3.57
2023-03-12T11:56:38.010Z,3.55
2023-03-12T11:57:42.257Z,3.54
2023-03-12T11:58:46.444Z,3.57
2023-03-12T11:59:50.613Z,3.62
2023-03-12T12:00:54.832Z,3.66
2023-03-12T12:01:59.078Z,3.69
2023-03-12T12:03:03.256Z,3.72
2023-03-12T12:04:07.494Z,3.79
2023-03-12T12:05:11.827Z,3.84
2023-03-12T12:06:15.998Z,3.91
2023-03-12T12:07:20.198Z,3.92
2023-03-12T12:08:24.419Z,3.91
2023-03-12T12:09:28.618Z,3.91
2023-03-12T12:10:32.834Z,3.93
2023-03-12T12:11:37.150Z,3.99
2023-03-12T12:12:41.319Z,4.00
2023-03-12T12:13:45.542Z,4.00
2023-03-12T12:14:49.753Z,4.04
2023-03-12T12:15:54.139Z,4.03
2023-03-12T12:16:58.272Z,3.98
2023-03-12T12:18:02.490Z,3.96
2023-03-12T12:19:06.569Z,3.92
2023-03-12T12:20:10.845Z,3.92
2023-03-12T12:21:14.960Z,3.91
2023-03-12T12:22:19.220Z,3.94
2023-03-12T12:23:23.388Z,4.00
2023-03-12T12:24:27.644Z,4.02
2023-03-12T12:25:31.935Z,4.03
2023-03-12T12:26:36.107Z,3.99
2023-03-12T12:27:40.333Z,4.02
2023-03-12T12:28:44.559Z,4.07
2023-03-12T12:29:48.769Z,4.07
2023-03-12T12:30:52.912Z,4.06
2023-03-12T12:31:57.282Z,3.96
2023-03-12T12:33:01.312Z,3.93
2023-03-12T12:34:05.517Z,3.95
2023-03-12T12:35:10.589Z,3.94
2023-03-12T12:36:13.949Z,3.96
2023-03-12T12:37:18.112Z,3.99
2023-03-12T12:38:22.281Z,3.96
2023-03-12T12:39:26.552Z,3.96
2023-03-12T12:40:30.769Z,3.98
2023-03-12T12:41:34.889Z,3.99
2023-03-12T12:42:39.108Z,3.98
2023-03-12T12:43:43.252Z,3.91
2023-03-12T12:44:47.488Z,3.77
2023-03-12T12:45:51.747Z,3.60
2023-03-12T12:46:55.915Z,3.57
2023-03-12T12:48:00.124Z,3.56
2023-03-12T12:49:07.335Z,3.45
2023-03-12T12:50:10.569Z,3.40
2023-03-12T12:51:14.768Z,3.41
2023-03-12T12:52:18.944Z,3.38
2023-03-12T12:53:23.201Z,3.35
2023-03-12T12:54:27.335Z,3.27
2023-03-12T12:55:37.560Z,3.19
2023-03-12T12:56:40.301Z,3.20
2023-03-12T12:57:44.556Z,3.19
2023-03-12T12:58:48.840Z,3.18
2023-03-12T12:59:52.991Z,3.22
2023-03-12T13:00:57.297Z,3.21
2023-03-12T13:02:01.411Z,3.23
2023-03-12T13:03:05.595Z,3.19
2023-03-12T13:04:09.911Z,3.16
2023-03-12T13:05:14.054Z,3.10
2023-03-12T13:06:18.163Z,3.07
2023-03-12T13:07:22.435Z,3.03
2023-03-12T13:08:26.561Z,3.07
2023-03-12T13:09:30.745Z,3.11
2023-03-12T13:10:35.012Z,3.12
2023-03-12T13:11:39.281Z,3.15
2023-03-12T13:12:43.488Z,3.11
2023-03-12T13:13:47.648Z,3.12
2023-03-12T13:14:51.836Z,3.14
2023-03-12T13:15:56.084Z,3.10
2023-03-12T13:17:00.255Z,3.06
2023-03-12T13:18:04.507Z,3.02
2023-03-12T13:19:08.841Z,2.99
2023-03-12T13:20:13.072Z,2.98
2023-03-12T13:21:17.214Z,2.94
2023-03-12T13:22:21.407Z,2.93
2023-03-12T13:23:25.622Z,2.96
2023-03-12T13:24:29.877Z,2.96
2023-03-12T13:25:34.082Z,2.94
2023-03-12T13:26:38.293Z,2.93
2023-03-12T13:27:42.476Z,2.94
2023-03-12T13:28:46.566Z,2.96
2023-03-12T13:29:50.982Z,3.02
2023-03-12T13:30:55.163Z,3.06
2023-03-12T13:31:59.350Z,3.12
2023-03-12T13:33:03.522Z,3.16
2023-03-12T13:34:13.793Z,3.15
2023-03-12T13:35:16.637Z,3.12
2023-03-12T13:36:20.752Z,3.09
2023-03-12T13:37:25.086Z,3.12
2023-03-12T13:38:29.258Z,3.15
2023-03-12T13:39:33.464Z,3.17
2023-03-12T13:40:37.634Z,3.14
2023-03-12T13:41:41.807Z,3.07
2023-03-12T13:42:45.988Z,3.06
2023-03-12T13:43:50.197Z,3.05
2023-03-12T13:44:54.272Z,3.08
2023-03-12T13:45:58.550Z,3.08
2023-03-12T13:47:02.710Z,3.12
2023-03-12T13:48:06.844Z,3.09
2023-03-12T13:49:11.160Z,3.05
2023-03-12T13:50:15.390Z,3.08
2023-03-12T13:51:19.537Z,3.10
2023-03-12T13:52:23.743Z,3.09
2023-03-12T13:53:27.978Z,3.03
2023-03-12T13:54:32.231Z,3.02
2023-03-12T13:55:36.433Z,3.03
2023-03-12T13:56:54.689Z,3.05
2023-03-12T13:58:00.702Z,3.06
2023-03-12T13:59:04.047Z,3.10
2023-03-12T14:00:08.138Z,3.05
2023-03-12T14:01:12.384Z,2.73
2023-03-12T14:02:16.510Z,2.65
2023-03-12T14:03:20.754Z,2.42
2023-03-12T14:04:25.056Z,2.34
2023-03-12T14:05:29.222Z,2.22
2023-03-12T14:06:33.356Z,2.19
2023-03-12T14:07:37.603Z,2.08
2023-03-12T14:08:41.881Z,1.99
2023-03-12T14:09:46.150Z,2.00
2023-03-12T14:10:50.265Z,2.02
2023-03-12T14:11:54.616Z,2.04
2023-03-12T14:12:58.969Z,2.11
2023-03-12T14:14:03.024Z,2.16
2023-03-12T14:15:07.258Z,2.22
2023-03-12T14:16:11.550Z,2.20
2023-03-12T14:17:15.636Z,2.18
2023-03-12T14:18:19.818Z,2.20
2023-03-12T14:19:24.034Z,2.21